sensor_id;sensor_type;location;lat;lon;timestamp;pressure;altitude;pressure_sealevel;temperature;humidity
49825;BME280;35714;55.708;37.478;2024-01-07T00:01:54;99487.66;;;-14.94;48.82
49825;BME280;35714;55.708;37.478;2024-01-07T00:04:20;99491.31;;;-14.98;48.94
49825;BME280;35714;55.708;37.478;2024-01-07T00:06:46;99500.19;;;-15.02;49.15
49825;BME280;35714;55.708;37.478;2024-01-07T00:09:12;99483.56;;;-15.18;49.29
49825;BME280;35714;55.708;37.478;2024-01-07T00:11:40;99505.09;;;-15.15;49.12
49825;BME280;35714;55.708;37.478;2024-01-07T00:14:06;99508.06;;;-15.22;48.99
49825;BME280;35714;55.708;37.478;2024-01-07T00:16:32;99512.56;;;-15.26;49.50
49825;BME280;35714;55.708;37.478;2024-01-07T00:18:58;99521.25;;;-15.27;49.39
49825;BME280;35714;55.708;37.478;2024-01-07T00:21:23;99521.19;;;-15.26;49.40
49825;BME280;35714;55.708;37.478;2024-01-07T00:23:49;99527.03;;;-15.20;49.18
49825;BME280;35714;55.708;37.478;2024-01-07T00:26:15;99526.94;;;-15.19;49.41
49825;BME280;35714;55.708;37.478;2024-01-07T00:28:41;99524.50;;;-15.22;49.10
49825;BME280;35714;55.708;37.478;2024-01-07T00:31:06;99526.13;;;-15.19;49.59
49825;BME280;35714;55.708;37.478;2024-01-07T00:33:36;99532.09;;;-15.17;49.52
49825;BME280;35714;55.708;37.478;2024-01-07T00:36:03;99527.56;;;-15.14;49.43
49825;BME280;35714;55.708;37.478;2024-01-07T00:38:29;99538.91;;;-15.15;49.29
49825;BME280;35714;55.708;37.478;2024-01-07T00:40:54;99548.59;;;-15.18;48.69
49825;BME280;35714;55.708;37.478;2024-01-07T00:43:20;99553.03;;;-15.20;48.73
49825;BME280;35714;55.708;37.478;2024-01-07T00:45:46;99559.38;;;-15.26;49.13
49825;BME280;35714;55.708;37.478;2024-01-07T00:48:14;99555.97;;;-15.28;49.31
49825;BME280;35714;55.708;37.478;2024-01-07T00:50:40;99561.97;;;-15.26;49.12
49825;BME280;35714;55.708;37.478;2024-01-07T00:53:05;99568.00;;;-15.26;49.30
49825;BME280;35714;55.708;37.478;2024-01-07T00:55:31;99558.63;;;-15.30;48.92
49825;BME280;35714;55.708;37.478;2024-01-07T00:57:57;99560.59;;;-15.35;48.92
49825;BME280;35714;55.708;37.478;2024-01-07T01:00:22;99555.94;;;-15.47;49.27
49825;BME280;35714;55.708;37.478;2024-01-07T01:02:48;99572.31;;;-15.45;48.90
49825;BME280;35714;55.708;37.478;2024-01-07T01:05:14;99583.91;;;-15.52;48.84
49825;BME280;35714;55.708;37.478;2024-01-07T01:07:40;99586.25;;;-15.67;49.04
49825;BME280;35714;55.708;37.478;2024-01-07T01:10:06;99593.81;;;-15.81;49.27
49825;BME280;35714;55.708;37.478;2024-01-07T01:12:32;99594.31;;;-15.93;49.01
49825;BME280;35714;55.708;37.478;2024-01-07T01:14:58;99606.63;;;-15.99;49.37
49825;BME280;35714;55.708;37.478;2024-01-07T01:17:23;99606.75;;;-16.02;49.49
49825;BME280;35714;55.708;37.478;2024-01-07T01:19:49;99610.28;;;-16.03;48.98
49825;BME280;35714;55.708;37.478;2024-01-07T01:22:15;99610.41;;;-16.06;49.25
49825;BME280;35714;55.708;37.478;2024-01-07T01:24:41;99622.47;;;-16.05;49.03
49825;BME280;35714;55.708;37.478;2024-01-07T01:27:09;99626.94;;;-16.08;48.99
49825;BME280;35714;55.708;37.478;2024-01-07T01:29:36;99624.28;;;-16.07;48.91
49825;BME280;35714;55.708;37.478;2024-01-07T01:32:01;99622.75;;;-16.11;48.81
49825;BME280;35714;55.708;37.478;2024-01-07T01:34:27;99627.13;;;-16.13;49.09
49825;BME280;35714;55.708;37.478;2024-01-07T01:36:53;99630.66;;;-16.14;49.09
49825;BME280;35714;55.708;37.478;2024-01-07T01:39:19;99627.94;;;-16.11;48.64
49825;BME280;35714;55.708;37.478;2024-01-07T01:41:45;99638.19;;;-16.08;48.61
49825;BME280;35714;55.708;37.478;2024-01-07T01:44:10;99646.63;;;-16.03;48.60
49825;BME280;35714;55.708;37.478;2024-01-07T01:46:36;99648.38;;;-16.03;48.66
49825;BME280;35714;55.708;37.478;2024-01-07T01:49:02;99655.56;;;-16.10;48.48
49825;BME280;35714;55.708;37.478;2024-01-07T01:51:27;99662.47;;;-16.09;48.72
49825;BME280;35714;55.708;37.478;2024-01-07T01:53:54;99663.34;;;-16.10;48.29
49825;BME280;35714;55.708;37.478;2024-01-07T01:56:20;99676.22;;;-16.07;48.39
49825;BME280;35714;55.708;37.478;2024-01-07T01:58:48;99678.88;;;-16.08;47.98
49825;BME280;35714;55.708;37.478;2024-01-07T02:01:13;99699.16;;;-16.18;48.37
49825;BME280;35714;55.708;37.478;2024-01-07T02:03:39;99694.31;;;-16.27;48.62
49825;BME280;35714;55.708;37.478;2024-01-07T02:06:05;99697.81;;;-16.28;48.11
49825;BME280;35714;55.708;37.478;2024-01-07T02:08:32;99692.84;;;-16.35;48.27
49825;BME280;35714;55.708;37.478;2024-01-07T02:10:58;99699.88;;;-16.37;48.56
49825;BME280;35714;55.708;37.478;2024-01-07T02:13:24;99699.97;;;-16.40;48.45
49825;BME280;35714;55.708;37.478;2024-01-07T02:15:50;99703.50;;;-16.41;48.19
49825;BME280;35714;55.708;37.478;2024-01-07T02:18:16;99703.25;;;-16.35;48.19
49825;BME280;35714;55.708;37.478;2024-01-07T02:20:42;99711.72;;;-16.29;48.12
49825;BME280;35714;55.708;37.478;2024-01-07T02:23:08;99712.66;;;-16.32;48.33
49825;BME280;35714;55.708;37.478;2024-01-07T02:25:37;99714.50;;;-16.34;47.94
49825;BME280;35714;55.708;37.478;2024-01-07T02:28:03;99720.75;;;-16.40;48.02
49825;BME280;35714;55.708;37.478;2024-01-07T02:30:29;99717.72;;;-16.51;47.54
49825;BME280;35714;55.708;37.478;2024-01-07T02:32:54;99718.16;;;-16.63;47.32
49825;BME280;35714;55.708;37.478;2024-01-07T02:35:20;99723.06;;;-16.79;47.40
49825;BME280;35714;55.708;37.478;2024-01-07T02:37:46;99703.97;;;-17.00;47.63
49825;BME280;35714;55.708;37.478;2024-01-07T02:40:12;99710.09;;;-17.03;47.99
49825;BME280;35714;55.708;37.478;2024-01-07T02:42:37;99721.31;;;-17.02;47.93
49825;BME280;35714;55.708;37.478;2024-01-07T02:45:03;99707.56;;;-17.04;48.16
49825;BME280;35714;55.708;37.478;2024-01-07T02:47:31;99711.25;;;-17.12;48.19
49825;BME280;35714;55.708;37.478;2024-01-07T02:49:57;99708.13;;;-17.21;48.02
49825;BME280;35714;55.708;37.478;2024-01-07T02:52:22;99717.50;;;-17.17;48.15
49825;BME280;35714;55.708;37.478;2024-01-07T02:54:48;99719.03;;;-17.12;48.06
49825;BME280;35714;55.708;37.478;2024-01-07T02:57:14;99720.16;;;-17.19;47.93
49825;BME280;35714;55.708;37.478;2024-01-07T02:59:39;99731.88;;;-17.09;48.16
49825;BME280;35714;55.708;37.478;2024-01-07T03:02:05;99737.06;;;-17.09;48.06
49825;BME280;35714;55.708;37.478;2024-01-07T03:04:31;99726.69;;;-17.09;48.00
49825;BME280;35714;55.708;37.478;2024-01-07T03:06:56;99747.44;;;-17.09;48.10
49825;BME280;35714;55.708;37.478;2024-01-07T03:09:22;99751.72;;;-17.08;47.56
49825;BME280;35714;55.708;37.478;2024-01-07T03:11:47;99758.72;;;-17.10;47.61
49825;BME280;35714;55.708;37.478;2024-01-07T03:14:13;99752.94;;;-17.18;47.48
49825;BME280;35714;55.708;37.478;2024-01-07T03:16:39;99754.63;;;-17.17;48.03
49825;BME280;35714;55.708;37.478;2024-01-07T03:19:04;99752.94;;;-17.18;47.90
49825;BME280;35714;55.708;37.478;2024-01-07T03:21:30;99756.34;;;-17.16;47.55
49825;BME280;35714;55.708;37.478;2024-01-07T03:23:56;99768.38;;;-17.15;47.73
49825;BME280;35714;55.708;37.478;2024-01-07T03:26:21;99770.94;;;-17.13;47.78
49825;BME280;35714;55.708;37.478;2024-01-07T03:28:47;99769.31;;;-17.16;47.76
49825;BME280;35714;55.708;37.478;2024-01-07T03:31:14;99781.53;;;-17.19;47.81
49825;BME280;35714;55.708;37.478;2024-01-07T03:33:41;99787.75;;;-17.25;47.27
49825;BME280;35714;55.708;37.478;2024-01-07T03:36:11;99787.94;;;-17.31;47.41
49825;BME280;35714;55.708;37.478;2024-01-07T03:38:38;99796.91;;;-17.41;47.06
49825;BME280;35714;55.708;37.478;2024-01-07T03:41:04;99802.59;;;-17.57;47.46
49825;BME280;35714;55.708;37.478;2024-01-07T03:43:30;99804.56;;;-17.65;47.46
49825;BME280;35714;55.708;37.478;2024-01-07T03:45:56;99808.16;;;-17.69;47.35
49825;BME280;35714;55.708;37.478;2024-01-07T03:48:21;99814.28;;;-17.72;47.44
49825;BME280;35714;55.708;37.478;2024-01-07T03:50:47;99822.28;;;-17.80;47.43
49825;BME280;35714;55.708;37.478;2024-01-07T03:53:13;99834.56;;;-17.86;47.75
49825;BME280;35714;55.708;37.478;2024-01-07T03:55:39;99828.66;;;-17.90;47.83
49825;BME280;35714;55.708;37.478;2024-01-07T03:58:05;99824.28;;;-17.88;47.88
49825;BME280;35714;55.708;37.478;2024-01-07T04:00:32;99825.16;;;-17.89;47.38
49825;BME280;35714;55.708;37.478;2024-01-07T04:02:57;99836.31;;;-17.87;47.63
49825;BME280;35714;55.708;37.478;2024-01-07T04:05:23;99831.25;;;-17.90;47.53
49825;BME280;35714;55.708;37.478;2024-01-07T04:07:49;99836.28;;;-17.85;47.43
49825;BME280;35714;55.708;37.478;2024-01-07T04:10:16;99823.19;;;-17.81;47.60
49825;BME280;35714;55.708;37.478;2024-01-07T04:12:42;99834.25;;;-17.75;47.29
49825;BME280;35714;55.708;37.478;2024-01-07T04:15:08;99849.88;;;-17.78;47.05
49825;BME280;35714;55.708;37.478;2024-01-07T04:17:34;99845.81;;;-17.87;47.05
49825;BME280;35714;55.708;37.478;2024-01-07T04:20:00;99846.88;;;-17.93;47.35
49825;BME280;35714;55.708;37.478;2024-01-07T04:22:25;99842.50;;;-17.91;46.95
49825;BME280;35714;55.708;37.478;2024-01-07T04:24:51;99845.94;;;-17.90;47.19
49825;BME280;35714;55.708;37.478;2024-01-07T04:27:17;99850.34;;;-17.94;47.03
49825;BME280;35714;55.708;37.478;2024-01-07T04:29:42;99845.19;;;-17.94;47.17
49825;BME280;35714;55.708;37.478;2024-01-07T04:32:09;99858.06;;;-17.92;46.88
49825;BME280;35714;55.708;37.478;2024-01-07T04:34:34;99858.13;;;-17.94;47.07
49825;BME280;35714;55.708;37.478;2024-01-07T04:37:00;99871.06;;;-17.94;46.87
49825;BME280;35714;55.708;37.478;2024-01-07T04:39:26;99874.63;;;-17.98;46.78
49825;BME280;35714;55.708;37.478;2024-01-07T04:41:51;99868.78;;;-18.05;46.73
49825;BME280;35714;55.708;37.478;2024-01-07T04:44:17;99878.25;;;-18.04;46.94
49825;BME280;35714;55.708;37.478;2024-01-07T04:46:43;99883.56;;;-18.08;46.53
49825;BME280;35714;55.708;37.478;2024-01-07T04:49:08;99892.38;;;-18.15;46.73
49825;BME280;35714;55.708;37.478;2024-01-07T04:51:34;99892.66;;;-18.26;46.34
49825;BME280;35714;55.708;37.478;2024-01-07T04:54:02;99896.44;;;-18.38;46.43
49825;BME280;35714;55.708;37.478;2024-01-07T04:56:28;99900.16;;;-18.48;46.77
49825;BME280;35714;55.708;37.478;2024-01-07T04:58:54;99903.81;;;-18.56;46.53
49825;BME280;35714;55.708;37.478;2024-01-07T05:01:19;99901.47;;;-18.65;46.81
49825;BME280;35714;55.708;37.478;2024-01-07T05:03:45;99899.19;;;-18.77;46.61
49825;BME280;35714;55.708;37.478;2024-01-07T05:06:11;99908.56;;;-18.73;46.73
49825;BME280;35714;55.708;37.478;2024-01-07T05:08:37;99912.16;;;-18.79;46.75
49825;BME280;35714;55.708;37.478;2024-01-07T05:11:03;99919.03;;;-18.78;47.09
49825;BME280;35714;55.708;37.478;2024-01-07T05:13:30;99926.91;;;-18.82;47.16
49825;BME280;35714;55.708;37.478;2024-01-07T05:15:56;99940.47;;;-18.74;47.11
49825;BME280;35714;55.708;37.478;2024-01-07T05:18:23;99945.56;;;-18.71;46.68
49825;BME280;35714;55.708;37.478;2024-01-07T05:20:49;99938.53;;;-18.66;47.25
49825;BME280;35714;55.708;37.478;2024-01-07T05:23:15;99944.47;;;-18.61;46.98
49825;BME280;35714;55.708;37.478;2024-01-07T05:25:43;99941.81;;;-18.58;46.83
49825;BME280;35714;55.708;37.478;2024-01-07T05:28:09;99948.59;;;-18.54;46.56
49825;BME280;35714;55.708;37.478;2024-01-07T05:30:34;99950.38;;;-18.56;46.56
49825;BME280;35714;55.708;37.478;2024-01-07T05:33:00;99956.31;;;-18.52;46.85
49825;BME280;35714;55.708;37.478;2024-01-07T05:35:26;99964.13;;;-18.55;46.54
49825;BME280;35714;55.708;37.478;2024-01-07T05:37:51;99978.09;;;-18.61;46.07
49825;BME280;35714;55.708;37.478;2024-01-07T05:40:17;99987.78;;;-18.71;46.58
49825;BME280;35714;55.708;37.478;2024-01-07T05:42:44;99987.00;;;-18.74;46.41
49825;BME280;35714;55.708;37.478;2024-01-07T05:45:10;99993.97;;;-18.76;46.69
49825;BME280;35714;55.708;37.478;2024-01-07T05:47:35;99997.44;;;-18.77;46.26
49825;BME280;35714;55.708;37.478;2024-01-07T05:50:01;100011.34;;;-18.83;46.78
49825;BME280;35714;55.708;37.478;2024-01-07T05:52:29;100002.66;;;-18.80;46.77
49825;BME280;35714;55.708;37.478;2024-01-07T05:54:55;100005.22;;;-18.79;46.82
49825;BME280;35714;55.708;37.478;2024-01-07T05:57:21;100005.25;;;-18.80;46.80
49825;BME280;35714;55.708;37.478;2024-01-07T05:59:46;100018.38;;;-18.88;46.00
49825;BME280;35714;55.708;37.478;2024-01-07T06:02:12;100010.19;;;-19.07;46.05
49825;BME280;35714;55.708;37.478;2024-01-07T06:04:38;100007.78;;;-19.15;46.27
49825;BME280;35714;55.708;37.478;2024-01-07T06:07:04;100005.22;;;-19.16;46.65
49825;BME280;35714;55.708;37.478;2024-01-07T06:09:30;100014.59;;;-19.11;46.61
49825;BME280;35714;55.708;37.478;2024-01-07T06:11:55;100017.91;;;-19.05;46.81
49825;BME280;35714;55.708;37.478;2024-01-07T06:14:22;100011.91;;;-19.06;46.54
49825;BME280;35714;55.708;37.478;2024-01-07T06:16:48;100023.72;;;-18.96;46.66
49825;BME280;35714;55.708;37.478;2024-01-07T06:19:16;100018.34;;;-18.86;46.65
49825;BME280;35714;55.708;37.478;2024-01-07T06:21:41;100031.88;;;-18.77;46.35
49825;BME280;35714;55.708;37.478;2024-01-07T06:24:08;100036.97;;;-18.74;46.41
49825;BME280;35714;55.708;37.478;2024-01-07T06:26:34;100030.16;;;-18.76;46.06
49825;BME280;35714;55.708;37.478;2024-01-07T06:28:59;100023.22;;;-18.74;46.16
49825;BME280;35714;55.708;37.478;2024-01-07T06:31:25;100009.47;;;-18.76;46.15
49825;BME280;35714;55.708;37.478;2024-01-07T06:33:51;100029.81;;;-18.61;46.18
49825;BME280;35714;55.708;37.478;2024-01-07T06:36:17;100036.59;;;-18.57;46.00
49825;BME280;35714;55.708;37.478;2024-01-07T06:38:43;100041.69;;;-18.54;45.93
49825;BME280;35714;55.708;37.478;2024-01-07T06:41:11;100042.56;;;-18.55;45.63
49825;BME280;35714;55.708;37.478;2024-01-07T06:43:38;100040.09;;;-18.58;45.76
49825;BME280;35714;55.708;37.478;2024-01-07T06:46:04;100051.97;;;-18.50;45.72
49825;BME280;35714;55.708;37.478;2024-01-07T06:48:30;100057.81;;;-18.42;45.84
49825;BME280;35714;55.708;37.478;2024-01-07T06:50:57;100068.97;;;-18.40;45.52
49825;BME280;35714;55.708;37.478;2024-01-07T06:53:23;100072.53;;;-18.44;45.42
49825;BME280;35714;55.708;37.478;2024-01-07T06:55:48;100068.91;;;-18.37;45.71
49825;BME280;35714;55.708;37.478;2024-01-07T06:58:14;100073.66;;;-18.20;45.54
49825;BME280;35714;55.708;37.478;2024-01-07T07:00:40;100083.44;;;-17.97;45.40
49825;BME280;35714;55.708;37.478;2024-01-07T07:03:06;100092.91;;;-17.63;45.57
49825;BME280;35714;55.708;37.478;2024-01-07T07:05:32;100096.19;;;-17.25;45.77
49825;BME280;35714;55.708;37.478;2024-01-07T07:07:58;100105.44;;;-16.58;45.58
49825;BME280;35714;55.708;37.478;2024-01-07T07:10:24;100096.81;;;-15.77;45.25
49825;BME280;35714;55.708;37.478;2024-01-07T07:12:49;100110.47;;;-14.98;44.20
49825;BME280;35714;55.708;37.478;2024-01-07T07:15:18;100105.88;;;-14.23;42.90
49825;BME280;35714;55.708;37.478;2024-01-07T07:17:43;100110.53;;;-13.46;41.84
49825;BME280;35714;55.708;37.478;2024-01-07T07:20:10;100113.97;;;-12.66;41.06
49825;BME280;35714;55.708;37.478;2024-01-07T07:22:36;100116.97;;;-11.84;39.40
49825;BME280;35714;55.708;37.478;2024-01-07T07:25:02;100126.44;;;-11.11;38.68
49825;BME280;35714;55.708;37.478;2024-01-07T07:27:30;100114.91;;;-10.58;37.46
49825;BME280;35714;55.708;37.478;2024-01-07T07:29:56;100111.91;;;-10.20;36.13
49825;BME280;35714;55.708;37.478;2024-01-07T07:32:21;100113.66;;;-9.88;35.73
49825;BME280;35714;55.708;37.478;2024-01-07T07:34:47;100103.34;;;-9.61;34.46
49825;BME280;35714;55.708;37.478;2024-01-07T07:37:13;100105.91;;;-9.45;34.29
49825;BME280;35714;55.708;37.478;2024-01-07T07:39:39;100111.72;;;-9.40;34.53
49825;BME280;35714;55.708;37.478;2024-01-07T07:42:05;100112.41;;;-9.36;34.00
49825;BME280;35714;55.708;37.478;2024-01-07T07:44:31;100099.81;;;-9.46;33.72
49825;BME280;35714;55.708;37.478;2024-01-07T07:46:57;100125.00;;;-9.27;34.07
49825;BME280;35714;55.708;37.478;2024-01-07T07:49:23;100130.81;;;-9.08;33.59
49825;BME280;35714;55.708;37.478;2024-01-07T07:51:48;100133.84;;;-8.71;33.22
49825;BME280;35714;55.708;37.478;2024-01-07T07:54:14;100144.28;;;-8.55;32.29
49825;BME280;35714;55.708;37.478;2024-01-07T07:56:39;100141.94;;;-8.59;31.62
49825;BME280;35714;55.708;37.478;2024-01-07T07:59:05;100149.63;;;-8.71;31.79
49825;BME280;35714;55.708;37.478;2024-01-07T08:01:31;100153.94;;;-8.84;32.21
49825;BME280;35714;55.708;37.478;2024-01-07T08:03:56;100156.94;;;-8.76;31.87
49825;BME280;35714;55.708;37.478;2024-01-07T08:06:22;100153.94;;;-8.84;31.61
49825;BME280;35714;55.708;37.478;2024-01-07T08:08:48;100169.22;;;-8.76;30.96
49825;BME280;35714;55.708;37.478;2024-01-07T08:11:13;100172.31;;;-8.69;31.18
49825;BME280;35714;55.708;37.478;2024-01-07T08:13:39;100173.66;;;-8.62;31.10
49825;BME280;35714;55.708;37.478;2024-01-07T08:16:05;100176.97;;;-8.17;30.92
49825;BME280;35714;55.708;37.478;2024-01-07T08:18:31;100184.47;;;-7.69;29.96
49825;BME280;35714;55.708;37.478;2024-01-07T08:20:58;100179.13;;;-7.28;29.69
49825;BME280;35714;55.708;37.478;2024-01-07T08:23:24;100184.03;;;-6.83;29.50
49825;BME280;35714;55.708;37.478;2024-01-07T08:25:50;100195.22;;;-6.54;29.06
49825;BME280;35714;55.708;37.478;2024-01-07T08:28:17;100200.59;;;-6.42;28.39
49825;BME280;35714;55.708;37.478;2024-01-07T08:30:44;100198.13;;;-6.20;28.24
49825;BME280;35714;55.708;37.478;2024-01-07T08:33:10;100198.06;;;-5.94;28.34
49825;BME280;35714;55.708;37.478;2024-01-07T08:35:36;100208.16;;;-5.51;27.95
49825;BME280;35714;55.708;37.478;2024-01-07T08:38:02;100202.03;;;-4.92;27.15
49825;BME280;35714;55.708;37.478;2024-01-07T08:40:28;100205.34;;;-4.54;26.88
49825;BME280;35714;55.708;37.478;2024-01-07T08:42:55;100205.59;;;-4.12;26.42
49825;BME280;35714;55.708;37.478;2024-01-07T08:45:20;100214.00;;;-3.84;26.00
49825;BME280;35714;55.708;37.478;2024-01-07T08:47:47;100204.84;;;-4.03;25.55
49825;BME280;35714;55.708;37.478;2024-01-07T08:50:12;100207.75;;;-3.94;25.70
49825;BME280;35714;55.708;37.478;2024-01-07T08:52:38;100213.69;;;-3.58;25.78
49825;BME280;35714;55.708;37.478;2024-01-07T08:55:04;100209.00;;;-3.22;24.99
49825;BME280;35714;55.708;37.478;2024-01-07T08:57:34;100207.69;;;-2.96;24.81
49825;BME280;35714;55.708;37.478;2024-01-07T09:00:00;100216.16;;;-3.02;24.80
49825;BME280;35714;55.708;37.478;2024-01-07T09:02:26;100220.69;;;-2.93;24.59
49825;BME280;35714;55.708;37.478;2024-01-07T09:04:51;100227.00;;;-2.73;23.89
49825;BME280;35714;55.708;37.478;2024-01-07T09:07:17;100221.56;;;-2.71;24.22
49825;BME280;35714;55.708;37.478;2024-01-07T09:09:44;100215.44;;;-3.04;24.05
49825;BME280;35714;55.708;37.478;2024-01-07T09:12:10;100213.97;;;-3.73;24.17
49825;BME280;35714;55.708;37.478;2024-01-07T09:14:39;100208.94;;;-4.66;24.88
49825;BME280;35714;55.708;37.478;2024-01-07T09:17:05;100215.06;;;-5.61;25.64
49825;BME280;35714;55.708;37.478;2024-01-07T09:19:31;100211.88;;;-6.40;26.05
49825;BME280;35714;55.708;37.478;2024-01-07T09:21:57;100219.19;;;-7.22;26.56
49825;BME280;35714;55.708;37.478;2024-01-07T09:24:22;100215.19;;;-8.11;26.96
49825;BME280;35714;55.708;37.478;2024-01-07T09:26:48;100214.81;;;-8.92;27.61
49825;BME280;35714;55.708;37.478;2024-01-07T09:29:13;100209.75;;;-9.55;28.50
49825;BME280;35714;55.708;37.478;2024-01-07T09:31:40;100217.31;;;-10.13;28.57
49825;BME280;35714;55.708;37.478;2024-01-07T09:34:05;100222.50;;;-10.61;29.30
49825;BME280;35714;55.708;37.478;2024-01-07T09:36:33;100224.25;;;-11.12;29.92
49825;BME280;35714;55.708;37.478;2024-01-07T09:38:58;100224.66;;;-11.56;30.02
49825;BME280;35714;55.708;37.478;2024-01-07T09:41:24;100211.31;;;-12.06;30.95
49825;BME280;35714;55.708;37.478;2024-01-07T09:43:53;100235.06;;;-12.29;30.95
49825;BME280;35714;55.708;37.478;2024-01-07T09:46:19;100230.69;;;-12.48;31.46
49825;BME280;35714;55.708;37.478;2024-01-07T09:48:45;100236.84;;;-12.69;31.36
49825;BME280;35714;55.708;37.478;2024-01-07T09:51:11;100238.41;;;-12.86;32.37
49825;BME280;35714;55.708;37.478;2024-01-07T09:53:38;100232.28;;;-12.85;32.58
49825;BME280;35714;55.708;37.478;2024-01-07T09:56:25;100235.84;;;-12.67;33.00
49825;BME280;35714;55.708;37.478;2024-01-07T09:58:51;100231.72;;;-12.52;32.95
49825;BME280;35714;55.708;37.478;2024-01-07T10:01:19;100233.78;;;-12.40;32.80
49825;BME280;35714;55.708;37.478;2024-01-07T10:03:45;100242.41;;;-12.38;32.08
49825;BME280;35714;55.708;37.478;2024-01-07T10:06:12;100238.41;;;-12.46;32.31
49825;BME280;35714;55.708;37.478;2024-01-07T10:08:39;100228.47;;;-12.57;32.75
49825;BME280;35714;55.708;37.478;2024-01-07T10:11:04;100238.50;;;-12.48;32.26
49825;BME280;35714;55.708;37.478;2024-01-07T10:13:31;100244.09;;;-12.37;32.83
49825;BME280;35714;55.708;37.478;2024-01-07T10:15:58;100229.69;;;-12.26;32.55
49825;BME280;35714;55.708;37.478;2024-01-07T10:18:24;100248.16;;;-11.74;32.73
49825;BME280;35714;55.708;37.478;2024-01-07T10:20:51;100244.16;;;-10.75;32.59
49825;BME280;35714;55.708;37.478;2024-01-07T10:23:20;100255.81;;;-9.50;31.41
49825;BME280;35714;55.708;37.478;2024-01-07T10:25:46;100249.50;;;-8.27;30.83
49825;BME280;35714;55.708;37.478;2024-01-07T10:28:13;100247.66;;;-7.15;29.57
49825;BME280;35714;55.708;37.478;2024-01-07T10:30:40;100253.91;;;-6.11;28.23
49825;BME280;35714;55.708;37.478;2024-01-07T10:33:07;100246.38;;;-5.81;27.58
49825;BME280;35714;55.708;37.478;2024-01-07T10:35:34;100253.66;;;-5.71;27.38
49825;BME280;35714;55.708;37.478;2024-01-07T10:38:00;100249.03;;;-5.44;27.03
49825;BME280;35714;55.708;37.478;2024-01-07T10:40:27;100248.88;;;-4.94;26.77
49825;BME280;35714;55.708;37.478;2024-01-07T10:42:55;100231.47;;;-4.15;25.96
49825;BME280;35714;55.708;37.478;2024-01-07T10:45:22;100253.22;;;-3.44;25.60
49825;BME280;35714;55.708;37.478;2024-01-07T10:47:49;100248.34;;;-2.95;24.70
49825;BME280;35714;55.708;37.478;2024-01-07T10:50:18;100249.81;;;-2.39;24.30
49825;BME280;35714;55.708;37.478;2024-01-07T10:52:50;100242.22;;;-1.92;23.43
49825;BME280;35714;55.708;37.478;2024-01-07T10:55:25;100244.59;;;-1.38;23.63
49825;BME280;35714;55.708;37.478;2024-01-07T10:57:53;100244.66;;;-1.09;23.34
49825;BME280;35714;55.708;37.478;2024-01-07T11:00:20;100251.13;;;-1.12;22.77
49825;BME280;35714;55.708;37.478;2024-01-07T11:03:18;100250.00;;;-0.80;21.60
49825;BME280;35714;55.708;37.478;2024-01-07T11:10:59;100262.44;;;0.62;20.85
49825;BME280;35714;55.708;37.478;2024-01-07T11:13:33;100256.59;;;0.94;20.58
49825;BME280;35714;55.708;37.478;2024-01-07T11:16:10;100254.38;;;0.44;21.40
49825;BME280;35714;55.708;37.478;2024-01-07T11:18:46;100256.72;;;-0.85;21.39
49825;BME280;35714;55.708;37.478;2024-01-07T11:21:21;100253.63;;;-1.70;21.95
49825;BME280;35714;55.708;37.478;2024-01-07T11:23:47;100264.03;;;-1.57;22.86
49825;BME280;35714;55.708;37.478;2024-01-07T11:26:13;100266.50;;;-1.15;22.81
49825;BME280;35714;55.708;37.478;2024-01-07T11:28:55;100264.84;;;-1.06;21.76
49825;BME280;35714;55.708;37.478;2024-01-07T11:31:44;100261.59;;;-1.20;21.47
49825;BME280;35714;55.708;37.478;2024-01-07T11:34:39;100267.56;;;-1.57;21.66
49825;BME280;35714;55.708;37.478;2024-01-07T11:37:15;100267.72;;;-1.79;23.04
49825;BME280;35714;55.708;37.478;2024-01-07T11:39:48;100263.16;;;-2.08;22.49
49825;BME280;35714;55.708;37.478;2024-01-07T11:42:15;100278.53;;;-2.33;23.12
49825;BME280;35714;55.708;37.478;2024-01-07T11:44:54;100277.75;;;-2.45;22.88
49825;BME280;35714;55.708;37.478;2024-01-07T11:47:22;100273.72;;;-2.18;22.83
49825;BME280;35714;55.708;37.478;2024-01-07T11:49:48;100277.78;;;-1.93;22.60
49825;BME280;35714;55.708;37.478;2024-01-07T11:52:15;100282.44;;;-1.75;22.70
49825;BME280;35714;55.708;37.478;2024-01-07T11:54:41;100289.41;;;-1.43;22.53
49825;BME280;35714;55.708;37.478;2024-01-07T11:57:07;100259.47;;;-1.26;22.31
49825;BME280;35714;55.708;37.478;2024-01-07T11:59:34;100292.88;;;-0.83;22.23
49825;BME280;35714;55.708;37.478;2024-01-07T12:02:00;100287.66;;;-1.04;21.99
49825;BME280;35714;55.708;37.478;2024-01-07T12:04:27;100288.88;;;-1.78;21.95
49825;BME280;35714;55.708;37.478;2024-01-07T12:06:53;100286.13;;;-2.49;22.18
49825;BME280;35714;55.708;37.478;2024-01-07T12:09:19;100278.97;;;-3.35;22.89
49825;BME280;35714;55.708;37.478;2024-01-07T12:11:45;100288.13;;;-4.29;23.28
49825;BME280;35714;55.708;37.478;2024-01-07T12:14:11;100277.78;;;-5.15;24.21
49825;BME280;35714;55.708;37.478;2024-01-07T12:16:37;100292.69;;;-5.88;24.63
49825;BME280;35714;55.708;37.478;2024-01-07T12:19:03;100286.56;;;-6.65;25.48
49825;BME280;35714;55.708;37.478;2024-01-07T12:21:29;100284.13;;;-7.21;26.18
49825;BME280;35714;55.708;37.478;2024-01-07T12:23:55;100286.31;;;-7.70;26.45
49825;BME280;35714;55.708;37.478;2024-01-07T12:26:27;100285.97;;;-8.07;27.31
49825;BME280;35714;55.708;37.478;2024-01-07T12:28:54;100288.78;;;-8.39;27.27
49825;BME280;35714;55.708;37.478;2024-01-07T12:31:28;100295.66;;;-8.81;27.53
49825;BME280;35714;55.708;37.478;2024-01-07T12:33:54;100303.06;;;-9.18;27.88
49825;BME280;35714;55.708;37.478;2024-01-07T12:36:22;100299.19;;;-9.58;28.59
49825;BME280;35714;55.708;37.478;2024-01-07T12:38:49;100309.78;;;-9.93;28.85
49825;BME280;35714;55.708;37.478;2024-01-07T12:41:15;100314.19;;;-10.43;28.96